sensor_id;sensor_type;location;lat;lon;timestamp;P1;durP1;ratioP1;P2;durP2;ratioP2
31618;SDS011;18230;51.502;7.108;2023-04-25T00:02:24;27.67;;;6.05;;
31618;SDS011;18230;51.502;7.108;2023-04-25T00:07:25;25.85;;;6.40;;
31618;SDS011;18230;51.502;7.108;2023-04-25T00:12:26;19.98;;;6.40;;
31618;SDS011;18230;51.502;7.108;2023-04-25T00:17:28;19.10;;;6.07;;
31618;SDS011;18230;51.502;7.108;2023-04-25T00:22:29;14.05;;;5.32;;
31618;SDS011;18230;51.502;7.108;2023-04-25T00:27:30;16.33;;;5.35;;
31618;SDS011;18230;51.502;7.108;2023-04-25T00:32:31;20.10;;;5.18;;
31618;SDS011;18230;51.502;7.108;2023-04-25T00:37:31;16.67;;;4.82;;
31618;SDS011;18230;51.502;7.108;2023-04-25T00:42:32;15.57;;;4.47;;
31618;SDS011;18230;51.502;7.108;2023-04-25T00:47:33;16.58;;;4.97;;
31618;SDS011;18230;51.502;7.108;2023-04-25T00:52:37;18.10;;;5.03;;
31618;SDS011;18230;51.502;7.108;2023-04-25T00:57:40;14.10;;;5.22;;
31618;SDS011;18230;51.502;7.108;2023-04-25T01:02:41;12.82;;;4.90;;
31618;SDS011;18230;51.502;7.108;2023-04-25T01:07:42;15.77;;;6.30;;
31618;SDS011;18230;51.502;7.108;2023-04-25T01:12:43;22.20;;;6.32;;
31618;SDS011;18230;51.502;7.108;2023-04-25T01:17:44;19.48;;;5.90;;
31618;SDS011;18230;51.502;7.108;2023-04-25T01:22:45;32.95;;;8.73;;
31618;SDS011;18230;51.502;7.108;2023-04-25T01:27:46;25.85;;;6.30;;
31618;SDS011;18230;51.502;7.108;2023-04-25T01:32:47;20.75;;;6.60;;
31618;SDS011;18230;51.502;7.108;2023-04-25T01:37:49;19.85;;;6.82;;
31618;SDS011;18230;51.502;7.108;2023-04-25T01:42:51;18.17;;;7.45;;
31618;SDS011;18230;51.502;7.108;2023-04-25T01:47:52;21.85;;;7.57;;
31618;SDS011;18230;51.502;7.108;2023-04-25T01:52:53;17.17;;;7.60;;
31618;SDS011;18230;51.502;7.108;2023-04-25T01:57:54;20.10;;;7.25;;
31618;SDS011;18230;51.502;7.108;2023-04-25T02:02:58;22.25;;;7.20;;
31618;SDS011;18230;51.502;7.108;2023-04-25T02:07:59;14.95;;;6.40;;
31618;SDS011;18230;51.502;7.108;2023-04-25T02:13:00;28.35;;;6.88;;
31618;SDS011;18230;51.502;7.108;2023-04-25T02:18:01;17.02;;;6.07;;
31618;SDS011;18230;51.502;7.108;2023-04-25T02:23:02;26.83;;;6.05;;
31618;SDS011;18230;51.502;7.108;2023-04-25T02:28:03;20.27;;;5.72;;
31618;SDS011;18230;51.502;7.108;2023-04-25T02:33:04;16.52;;;6.20;;
31618;SDS011;18230;51.502;7.108;2023-04-25T02:38:05;15.18;;;6.07;;
31618;SDS011;18230;51.502;7.108;2023-04-25T02:43:06;18.38;;;5.55;;
31618;SDS011;18230;51.502;7.108;2023-04-25T02:48:07;24.73;;;7.20;;
31618;SDS011;18230;51.502;7.108;2023-04-25T02:53:07;18.30;;;7.00;;
31618;SDS011;18230;51.502;7.108;2023-04-25T02:58:08;19.85;;;7.00;;
31618;SDS011;18230;51.502;7.108;2023-04-25T03:03:15;24.70;;;6.60;;
31618;SDS011;18230;51.502;7.108;2023-04-25T03:08:18;24.70;;;7.22;;
31618;SDS011;18230;51.502;7.108;2023-04-25T03:13:18;22.75;;;7.93;;
31618;SDS011;18230;51.502;7.108;2023-04-25T03:18:19;18.40;;;7.15;;
31618;SDS011;18230;51.502;7.108;2023-04-25T03:23:20;21.05;;;8.20;;
31618;SDS011;18230;51.502;7.108;2023-04-25T03:28:21;20.90;;;7.22;;
31618;SDS011;18230;51.502;7.108;2023-04-25T03:33:22;20.70;;;8.07;;
31618;SDS011;18230;51.502;7.108;2023-04-25T03:38:23;22.10;;;7.80;;
31618;SDS011;18230;51.502;7.108;2023-04-25T03:43:23;25.23;;;7.25;;
31618;SDS011;18230;51.502;7.108;2023-04-25T03:48:25;29.27;;;8.15;;
31618;SDS011;18230;51.502;7.108;2023-04-25T03:53:26;27.13;;;7.68;;
31618;SDS011;18230;51.502;7.108;2023-04-25T03:58:26;23.08;;;7.50;;
31618;SDS011;18230;51.502;7.108;2023-04-25T04:03:27;20.58;;;5.95;;
31618;SDS011;18230;51.502;7.108;2023-04-25T04:08:28;13.50;;;4.78;;
31618;SDS011;18230;51.502;7.108;2023-04-25T04:13:29;19.50;;;3.92;;
31618;SDS011;18230;51.502;7.108;2023-04-25T04:18:30;13.63;;;3.65;;
31618;SDS011;18230;51.502;7.108;2023-04-25T04:23:30;18.88;;;4.30;;
31618;SDS011;18230;51.502;7.108;2023-04-25T04:28:31;14.43;;;3.03;;
31618;SDS011;18230;51.502;7.108;2023-04-25T04:33:32;15.20;;;3.17;;
31618;SDS011;18230;51.502;7.108;2023-04-25T04:38:32;16.92;;;3.65;;
31618;SDS011;18230;51.502;7.108;2023-04-25T04:43:33;17.02;;;3.55;;
31618;SDS011;18230;51.502;7.108;2023-04-25T04:48:34;17.45;;;3.92;;
31618;SDS011;18230;51.502;7.108;2023-04-25T04:53:34;11.30;;;3.72;;
31618;SDS011;18230;51.502;7.108;2023-04-25T04:58:36;21.92;;;5.78;;
31618;SDS011;18230;51.502;7.108;2023-04-25T05:03:36;20.33;;;5.53;;
31618;SDS011;18230;51.502;7.108;2023-04-25T05:08:37;19.52;;;5.60;;
31618;SDS011;18230;51.502;7.108;2023-04-25T05:13:38;17.50;;;5.97;;
31618;SDS011;18230;51.502;7.108;2023-04-25T05:18:39;22.30;;;6.65;;
31618;SDS011;18230;51.502;7.108;2023-04-25T05:23:40;24.65;;;7.50;;
31618;SDS011;18230;51.502;7.108;2023-04-25T05:28:40;20.13;;;7.22;;
31618;SDS011;18230;51.502;7.108;2023-04-25T05:33:42;22.65;;;7.75;;
31618;SDS011;18230;51.502;7.108;2023-04-25T05:38:42;25.70;;;8.80;;
31618;SDS011;18230;51.502;7.108;2023-04-25T05:43:43;26.55;;;8.05;;
31618;SDS011;18230;51.502;7.108;2023-04-25T05:48:47;29.45;;;7.80;;
31618;SDS011;18230;51.502;7.108;2023-04-25T05:53:47;30.42;;;7.45;;
31618;SDS011;18230;51.502;7.108;2023-04-25T05:58:48;27.27;;;7.15;;
31618;SDS011;18230;51.502;7.108;2023-04-25T06:03:49;25.67;;;7.32;;
31618;SDS011;18230;51.502;7.108;2023-04-25T06:08:51;31.35;;;7.20;;
31618;SDS011;18230;51.502;7.108;2023-04-25T06:13:52;26.10;;;7.43;;
31618;SDS011;18230;51.502;7.108;2023-04-25T06:18:52;25.42;;;7.35;;
31618;SDS011;18230;51.502;7.108;2023-04-25T06:23:53;28.65;;;7.45;;
31618;SDS011;18230;51.502;7.108;2023-04-25T06:28:54;30.67;;;8.38;;
31618;SDS011;18230;51.502;7.108;2023-04-25T06:33:55;25.02;;;6.63;;
31618;SDS011;18230;51.502;7.108;2023-04-25T06:38:55;33.40;;;7.10;;
31618;SDS011;18230;51.502;7.108;2023-04-25T06:43:57;22.33;;;6.65;;
31618;SDS011;18230;51.502;7.108;2023-04-25T06:48:57;21.67;;;6.32;;
31618;SDS011;18230;51.502;7.108;2023-04-25T06:53:58;29.23;;;7.38;;
31618;SDS011;18230;51.502;7.108;2023-04-25T06:58:59;26.90;;;6.30;;
31618;SDS011;18230;51.502;7.108;2023-04-25T07:04:00;22.88;;;4.80;;
31618;SDS011;18230;51.502;7.108;2023-04-25T07:09:01;20.90;;;4.30;;
31618;SDS011;18230;51.502;7.108;2023-04-25T07:14:02;17.88;;;3.75;;
31618;SDS011;18230;51.502;7.108;2023-04-25T07:19:03;17.60;;;3.78;;
31618;SDS011;18230;51.502;7.108;2023-04-25T07:24:04;21.48;;;4.15;;
31618;SDS011;18230;51.502;7.108;2023-04-25T07:29:05;17.23;;;3.17;;
31618;SDS011;18230;51.502;7.108;2023-04-25T07:34:06;22.92;;;3.67;;
31618;SDS011;18230;51.502;7.108;2023-04-25T07:39:07;18.13;;;3.60;;
31618;SDS011;18230;51.502;7.108;2023-04-25T07:44:10;15.93;;;3.55;;
31618;SDS011;18230;51.502;7.108;2023-04-25T07:49:11;19.95;;;4.47;;
31618;SDS011;18230;51.502;7.108;2023-04-25T07:54:13;19.45;;;3.78;;
31618;SDS011;18230;51.502;7.108;2023-04-25T07:59:14;17.02;;;4.22;;
31618;SDS011;18230;51.502;7.108;2023-04-25T08:04:15;17.67;;;3.88;;
31618;SDS011;18230;51.502;7.108;2023-04-25T08:09:16;20.35;;;3.38;;
31618;SDS011;18230;51.502;7.108;2023-04-25T08:14:17;19.35;;;3.28;;
31618;SDS011;18230;51.502;7.108;2023-04-25T08:19:17;14.43;;;3.20;;
31618;SDS011;18230;51.502;7.108;2023-04-25T08:24:18;14.55;;;3.03;;
31618;SDS011;18230;51.502;7.108;2023-04-25T08:29:22;20.80;;;3.90;;
31618;SDS011;18230;51.502;7.108;2023-04-25T08:34:25;18.70;;;3.25;;
31618;SDS011;18230;51.502;7.108;2023-04-25T08:39:28;14.18;;;2.90;;
31618;SDS011;18230;51.502;7.108;2023-04-25T08:44:28;14.93;;;2.42;;
31618;SDS011;18230;51.502;7.108;2023-04-25T08:49:33;14.93;;;2.78;;
31618;SDS011;18230;51.502;7.108;2023-04-25T08:54:34;17.02;;;3.17;;
31618;SDS011;18230;51.502;7.108;2023-04-25T08:59:37;15.98;;;2.78;;
31618;SDS011;18230;51.502;7.108;2023-04-25T09:04:39;18.27;;;3.28;;
31618;SDS011;18230;51.502;7.108;2023-04-25T09:09:42;20.15;;;3.63;;
31618;SDS011;18230;51.502;7.108;2023-04-25T09:14:43;19.45;;;3.28;;
31618;SDS011;18230;51.502;7.108;2023-04-25T09:20:09;14.75;;;2.80;;
31618;SDS011;18230;51.502;7.108;2023-04-25T09:25:14;14.57;;;2.70;;
31618;SDS011;18230;51.502;7.108;2023-04-25T09:30:15;9.20;;;1.98;;
31618;SDS011;18230;51.502;7.108;2023-04-25T09:35:23;14.48;;;2.67;;
31618;SDS011;18230;51.502;7.108;2023-04-25T09:40:25;17.42;;;2.63;;
31618;SDS011;18230;51.502;7.108;2023-04-25T09:45:29;7.20;;;2.03;;
31618;SDS011;18230;51.502;7.108;2023-04-25T09:50:31;12.93;;;1.83;;
31618;SDS011;18230;51.502;7.108;2023-04-25T09:55:32;11.98;;;1.90;;
31618;SDS011;18230;51.502;7.108;2023-04-25T10:00:34;9.25;;;1.90;;
31618;SDS011;18230;51.502;7.108;2023-04-25T10:05:35;16.55;;;2.50;;
31618;SDS011;18230;51.502;7.108;2023-04-25T10:10:37;9.23;;;2.13;;
31618;SDS011;18230;51.502;7.108;2023-04-25T10:15:40;12.68;;;2.03;;
31618;SDS011;18230;51.502;7.108;2023-04-25T10:20:41;12.18;;;2.00;;
31618;SDS011;18230;51.502;7.108;2023-04-25T10:25:42;10.68;;;2.53;;
31618;SDS011;18230;51.502;7.108;2023-04-25T10:36:18;10.50;;;2.17;;
31618;SDS011;18230;51.502;7.108;2023-04-25T10:41:21;10.55;;;2.05;;
31618;SDS011;18230;51.502;7.108;2023-04-25T10:46:23;11.98;;;2.88;;
31618;SDS011;18230;51.502;7.108;2023-04-25T10:51:26;12.43;;;2.55;;
31618;SDS011;18230;51.502;7.108;2023-04-25T10:56:33;9.30;;;2.37;;
31618;SDS011;18230;51.502;7.108;2023-04-25T11:01:39;10.52;;;2.90;;
31618;SDS011;18230;51.502;7.108;2023-04-25T11:06:46;13.68;;;2.63;;
31618;SDS011;18230;51.502;7.108;2023-04-25T11:12:00;9.88;;;2.60;;
31618;SDS011;18230;51.502;7.108;2023-04-25T11:17:01;12.77;;;3.22;;
31618;SDS011;18230;51.502;7.108;2023-04-25T11:22:05;10.07;;;2.63;;
31618;SDS011;18230;51.502;7.108;2023-04-25T11:27:07;13.80;;;3.05;;
31618;SDS011;18230;51.502;7.108;2023-04-25T11:32:08;12.10;;;2.30;;
31618;SDS011;18230;51.502;7.108;2023-04-25T11:37:10;5.72;;;2.05;;
31618;SDS011;18230;51.502;7.108;2023-04-25T11:42:12;8.95;;;2.15;;
31618;SDS011;18230;51.502;7.108;2023-04-25T11:47:13;8.23;;;1.85;;
31618;SDS011;18230;51.502;7.108;2023-04-25T11:52:14;7.43;;;1.88;;
31618;SDS011;18230;51.502;7.108;2023-04-25T11:57:14;5.25;;;1.35;;
31618;SDS011;18230;51.502;7.108;2023-04-25T12:02:25;6.03;;;1.40;;
31618;SDS011;18230;51.502;7.108;2023-04-25T12:07:29;7.40;;;1.38;;
31618;SDS011;18230;51.502;7.108;2023-04-25T12:12:33;8.95;;;1.73;;
31618;SDS011;18230;51.502;7.108;2023-04-25T12:17:35;9.35;;;2.08;;
31618;SDS011;18230;51.502;7.108;2023-04-25T12:22:37;4.63;;;1.40;;
31618;SDS011;18230;51.502;7.108;2023-04-25T12:27:40;5.45;;;1.30;;
31618;SDS011;18230;51.502;7.108;2023-04-25T12:32:42;7.95;;;1.40;;
31618;SDS011;18230;51.502;7.108;2023-04-25T12:37:42;5.30;;;1.58;;
31618;SDS011;18230;51.502;7.108;2023-04-25T12:42:43;7.18;;;1.52;;
31618;SDS011;18230;51.502;7.108;2023-04-25T12:47:44;9.07;;;1.63;;
31618;SDS011;18230;51.502;7.108;2023-04-25T12:52:44;8.18;;;1.98;;
31618;SDS011;18230;51.502;7.108;2023-04-25T12:57:45;5.47;;;1.33;;
31618;SDS011;18230;51.502;7.108;2023-04-25T13:02:46;7.00;;;1.80;;
31618;SDS011;18230;51.502;7.108;2023-04-25T13:07:47;7.28;;;1.75;;
31618;SDS011;18230;51.502;7.108;2023-04-25T13:12:48;12.18;;;3.00;;
31618;SDS011;18230;51.502;7.108;2023-04-25T13:17:49;11.57;;;2.80;;
31618;SDS011;18230;51.502;7.108;2023-04-25T13:22:50;8.02;;;1.83;;
31618;SDS011;18230;51.502;7.108;2023-04-25T13:27:50;6.85;;;2.30;;
31618;SDS011;18230;51.502;7.108;2023-04-25T13:32:51;6.15;;;2.00;;
31618;SDS011;18230;51.502;7.108;2023-04-25T13:37:52;7.18;;;1.90;;
31618;SDS011;18230;51.502;7.108;2023-04-25T13:42:53;8.68;;;1.60;;
31618;SDS011;18230;51.502;7.108;2023-04-25T13:47:55;5.18;;;1.50;;
31618;SDS011;18230;51.502;7.108;2023-04-25T13:52:55;4.40;;;1.20;;
31618;SDS011;18230;51.502;7.108;2023-04-25T13:57:57;9.55;;;1.73;;
31618;SDS011;18230;51.502;7.108;2023-04-25T14:02:57;13.23;;;1.90;;
31618;SDS011;18230;51.502;7.108;2023-04-25T14:07:58;9.25;;;1.58;;
31618;SDS011;18230;51.502;7.108;2023-04-25T14:13:00;4.53;;;1.40;;
31618;SDS011;18230;51.502;7.108;2023-04-25T14:18:01;6.30;;;1.60;;
31618;SDS011;18230;51.502;7.108;2023-04-25T14:23:02;3.13;;;1.13;;
31618;SDS011;18230;51.502;7.108;2023-04-25T14:28:03;4.55;;;1.10;;
31618;SDS011;18230;51.502;7.108;2023-04-25T14:33:04;5.80;;;1.60;;
31618;SDS011;18230;51.502;7.108;2023-04-25T14:38:05;5.90;;;1.20;;
31618;SDS011;18230;51.502;7.108;2023-04-25T14:43:06;5.13;;;1.20;;
31618;SDS011;18230;51.502;7.108;2023-04-25T14:48:06;4.05;;;1.00;;
31618;SDS011;18230;51.502;7.108;2023-04-25T14:53:07;4.95;;;1.58;;
31618;SDS011;18230;51.502;7.108;2023-04-25T14:58:08;10.65;;;2.85;;
31618;SDS011;18230;51.502;7.108;2023-04-25T15:03:09;9.55;;;2.25;;
31618;SDS011;18230;51.502;7.108;2023-04-25T15:08:12;7.40;;;2.45;;
31618;SDS011;18230;51.502;7.108;2023-04-25T15:13:13;5.28;;;1.60;;
31618;SDS011;18230;51.502;7.108;2023-04-25T15:18:15;9.30;;;2.05;;
31618;SDS011;18230;51.502;7.108;2023-04-25T15:23:16;7.10;;;1.90;;
31618;SDS011;18230;51.502;7.108;2023-04-25T15:28:17;4.35;;;2.30;;
31618;SDS011;18230;51.502;7.108;2023-04-25T15:33:21;8.82;;;2.63;;
31618;SDS011;18230;51.502;7.108;2023-04-25T15:38:21;6.53;;;1.45;;
31618;SDS011;18230;51.502;7.108;2023-04-25T15:43:22;6.57;;;1.60;;
31618;SDS011;18230;51.502;7.108;2023-04-25T15:48:23;4.60;;;1.65;;
31618;SDS011;18230;51.502;7.108;2023-04-25T15:53:27;5.15;;;1.67;;
31618;SDS011;18230;51.502;7.108;2023-04-25T15:58:28;5.38;;;1.58;;
31618;SDS011;18230;51.502;7.108;2023-04-25T16:03:29;7.22;;;1.95;;
31618;SDS011;18230;51.502;7.108;2023-04-25T16:08:31;20.00;;;1.92;;
31618;SDS011;18230;51.502;7.108;2023-04-25T16:13:34;5.32;;;1.83;;
31618;SDS011;18230;51.502;7.108;2023-04-25T16:18:35;5.53;;;1.33;;
31618;SDS011;18230;51.502;7.108;2023-04-25T16:23:36;6.35;;;1.60;;
31618;SDS011;18230;51.502;7.108;2023-04-25T16:28:37;6.78;;;1.83;;
31618;SDS011;18230;51.502;7.108;2023-04-25T16:33:37;10.05;;;1.73;;
31618;SDS011;18230;51.502;7.108;2023-04-25T16:38:38;6.38;;;2.05;;
31618;SDS011;18230;51.502;7.108;2023-04-25T16:43:39;5.18;;;1.67;;
31618;SDS011;18230;51.502;7.108;2023-04-25T16:48:40;5.90;;;2.20;;
31618;SDS011;18230;51.502;7.108;2023-04-25T16:53:41;6.60;;;1.90;;
31618;SDS011;18230;51.502;7.108;2023-04-25T16:58:42;5.95;;;1.60;;
31618;SDS011;18230;51.502;7.108;2023-04-25T17:03:43;8.55;;;1.70;;
31618;SDS011;18230;51.502;7.108;2023-04-25T17:08:44;6.80;;;1.65;;
31618;SDS011;18230;51.502;7.108;2023-04-25T17:13:44;11.77;;;1.80;;
31618;SDS011;18230;51.502;7.108;2023-04-25T17:18:45;6.60;;;1.70;;
31618;SDS011;18230;51.502;7.108;2023-04-25T17:23:46;10.82;;;1.90;;
31618;SDS011;18230;51.502;7.108;2023-04-25T17:28:47;7.60;;;2.17;;
31618;SDS011;18230;51.502;7.108;2023-04-25T17:33:48;9.63;;;1.85;;
31618;SDS011;18230;51.502;7.108;2023-04-25T17:38:49;10.07;;;3.08;;
31618;SDS011;18230;51.502;7.108;2023-04-25T17:43:50;10.05;;;1.60;;
31618;SDS011;18230;51.502;7.108;2023-04-25T17:48:51;7.35;;;2.20;;
31618;SDS011;18230;51.502;7.108;2023-04-25T17:53:52;13.60;;;2.47;;
31618;SDS011;18230;51.502;7.108;2023-04-25T17:58:53;14.57;;;4.95;;
31618;SDS011;18230;51.502;7.108;2023-04-25T18:03:54;10.18;;;4.10;;
31618;SDS011;18230;51.502;7.108;2023-04-25T18:08:55;7.93;;;2.15;;
31618;SDS011;18230;51.502;7.108;2023-04-25T18:13:56;7.32;;;2.47;;
31618;SDS011;18230;51.502;7.108;2023-04-25T18:18:56;14.77;;;3.63;;
31618;SDS011;18230;51.502;7.108;2023-04-25T18:24:04;12.23;;;3.78;;
31618;SDS011;18230;51.502;7.108;2023-04-25T18:29:08;8.82;;;2.15;;
31618;SDS011;18230;51.502;7.108;2023-04-25T18:34:10;15.43;;;3.10;;
31618;SDS011;18230;51.502;7.108;2023-04-25T18:39:11;17.52;;;3.45;;
31618;SDS011;18230;51.502;7.108;2023-04-25T18:44:12;13.18;;;3.03;;
31618;SDS011;18230;51.502;7.108;2023-04-25T18:49:12;19.33;;;4.82;;
31618;SDS011;18230;51.502;7.108;2023-04-25T18:54:13;16.77;;;3.85;;
31618;SDS011;18230;51.502;7.108;2023-04-25T18:59:14;11.10;;;2.55;;
31618;SDS011;18230;51.502;7.108;2023-04-25T19:04:16;12.23;;;3.75;;
31618;SDS011;18230;51.502;7.108;2023-04-25T19:09:17;10.57;;;3.17;;
31618;SDS011;18230;51.502;7.108;2023-04-25T19:14:17;8.88;;;2.88;;
31618;SDS011;18230;51.502;7.108;2023-04-25T19:19:18;8.38;;;2.40;;
31618;SDS011;18230;51.502;7.108;2023-04-25T19:24:19;6.25;;;2.20;;
31618;SDS011;18230;51.502;7.108;2023-04-25T19:29:19;14.18;;;2.60;;
31618;SDS011;18230;51.502;7.108;2023-04-25T19:34:20;9.15;;;2.70;;
31618;SDS011;18230;51.502;7.108;2023-04-25T19:39:21;17.10;;;4.55;;
31618;SDS011;18230;51.502;7.108;2023-04-25T19:44:23;11.30;;;3.58;;
31618;SDS011;18230;51.502;7.108;2023-04-25T19:49:24;9.80;;;3.20;;
31618;SDS011;18230;51.502;7.108;2023-04-25T19:54:25;21.23;;;5.70;;
31618;SDS011;18230;51.502;7.108;2023-04-25T19:59:26;13.65;;;3.20;;
31618;SDS011;18230;51.502;7.108;2023-04-25T20:04:27;9.07;;;2.83;;
31618;SDS011;18230;51.502;7.108;2023-04-25T20:09:28;10.00;;;2.22;;
31618;SDS011;18230;51.502;7.108;2023-04-25T20:14:28;11.70;;;2.38;;
31618;SDS011;18230;51.502;7.108;2023-04-25T20:19:29;9.25;;;2.67;;
31618;SDS011;18230;51.502;7.108;2023-04-25T20:24:31;13.65;;;2.92;;
31618;SDS011;18230;51.502;7.108;2023-04-25T20:29:33;10.15;;;3.55;;
31618;SDS011;18230;51.502;7.108;2023-04-25T20:34:34;8.73;;;3.72;;
31618;SDS011;18230;51.502;7.108;2023-04-25T20:39:36;13.65;;;3.33;;
31618;SDS011;18230;51.502;7.108;2023-04-25T20:44:38;11.77;;;2.72;;
31618;SDS011;18230;51.502;7.108;2023-04-25T20:49:39;15.45;;;3.00;;
31618;SDS011;18230;51.502;7.108;2023-04-25T20:54:40;11.88;;;2.40;;
31618;SDS011;18230;51.502;7.108;2023-04-25T20:59:41;16.35;;;2.65;;
31618;SDS011;18230;51.502;7.108;2023-04-25T21:04:42;10.15;;;2.45;;
31618;SDS011;18230;51.502;7.108;2023-04-25T21:09:45;13.98;;;2.53;;
31618;SDS011;18230;51.502;7.108;2023-04-25T21:14:46;8.68;;;2.67;;
31618;SDS011;18230;51.502;7.108;2023-04-25T21:19:47;9.23;;;3.00;;
31618;SDS011;18230;51.502;7.108;2023-04-25T21:24:48;12.50;;;3.10;;
31618;SDS011;18230;51.502;7.108;2023-04-25T21:29:49;12.32;;;3.38;;
31618;SDS011;18230;51.502;7.108;2023-04-25T21:34:50;16.80;;;3.00;;
31618;SDS011;18230;51.502;7.108;2023-04-25T21:39:51;22.13;;;4.75;;
31618;SDS011;18230;51.502;7.108;2023-04-25T21:44:52;13.77;;;3.55;;
31618;SDS011;18230;51.502;7.108;2023-04-25T21:49:53;15.80;;;4.05;;
31618;SDS011;18230;51.502;7.108;2023-04-25T21:54:54;16.25;;;3.65;;
31618;SDS011;18230;51.502;7.108;2023-04-25T21:59:54;12.45;;;3.17;;
31618;SDS011;18230;51.502;7.108;2023-04-25T22:04:55;7.85;;;2.42;;
31618;SDS011;18230;51.502;7.108;2023-04-25T22:09:56;8.50;;;2.60;;
31618;SDS011;18230;51.502;7.108;2023-04-25T22:14:57;10.50;;;2.50;;
31618;SDS011;18230;51.502;7.108;2023-04-25T22:19:58;16.02;;;3.20;;
31618;SDS011;18230;51.502;7.108;2023-04-25T22:24:59;10.25;;;2.67;;
31618;SDS011;18230;51.502;7.108;2023-04-25T22:30:00;8.90;;;2.72;;
31618;SDS011;18230;51.502;7.108;2023-04-25T22:35:05;14.85;;;3.13;;
31618;SDS011;18230;51.502;7.108;2023-04-25T22:40:07;13.73;;;2.83;;
31618;SDS011;18230;51.502;7.108;2023-04-25T22:45:08;6.30;;;2.85;;
31618;SDS011;18230;51.502;7.108;2023-04-25T22:50:09;11.43;;;2.28;;
31618;SDS011;18230;51.502;7.108;2023-04-25T22:55:15;9.20;;;2.78;;
31618;SDS011;18230;51.502;7.108;2023-04-25T23:00:16;9.57;;;2.83;;
31618;SDS011;18230;51.502;7.108;2023-04-25T23:05:20;11.45;;;3.13;;
31618;SDS011;18230;51.502;7.108;2023-04-25T23:10:23;13.20;;;3.67;;
31618;SDS011;18230;51.502;7.108;2023-04-25T23:15:25;15.40;;;3.80;;
31618;SDS011;18230;51.502;7.108;2023-04-25T23:20:26;12.77;;;3.80;;
31618;SDS011;18230;51.502;7.108;2023-04-25T23:25:27;12.15;;;4.22;;
31618;SDS011;18230;51.502;7.108;2023-04-25T23:30:28;11.10;;;3.70;;
31618;SDS011;18230;51.502;7.108;2023-04-25T23:35:28;10.18;;;3.22;;
31618;SDS011;18230;51.502;7.108;2023-04-25T23:40:29;10.90;;;3.63;;
31618;SDS011;18230;51.502;7.108;2023-04-25T23:45:30;16.73;;;3.83;;
31618;SDS011;18230;51.502;7.108;2023-04-25T23:50:31;11.40;;;3.75;;
31618;SDS011;18230;51.502;7.108;2023-04-25T23:55:32;12.40;;;4.03;;
